createdAt,value
2022-09-26T00:00:39.135Z,9.45
2022-09-26T00:03:06.220Z,9.88
2022-09-26T00:05:33.849Z,10.00
2022-09-26T00:08:00.679Z,10.35
2022-09-26T00:10:27.417Z,9.77
2022-09-26T00:12:55.518Z,10.52
2022-09-26T00:15:23.022Z,10.82
2022-09-26T00:17:49.740Z,11.27
2022-09-26T00:20:16.661Z,11.82
2022-09-26T00:22:43.231Z,11.30
2022-09-26T00:25:09.997Z,15.88
2022-09-26T00:27:36.649Z,14.77
2022-09-26T00:30:03.608Z,17.88
2022-09-26T00:32:30.273Z,16.77
2022-09-26T00:34:56.886Z,17.33
2022-09-26T00:37:23.483Z,16.17
2022-09-26T00:39:50.089Z,15.85
2022-09-26T00:42:16.637Z,16.65
2022-09-26T00:44:44.931Z,15.70
2022-09-26T00:47:24.587Z,14.52
2022-09-26T00:49:56.119Z,15.43
2022-09-26T00:52:30.819Z,14.30
2022-09-26T00:55:01.493Z,15.35
2022-09-26T00:57:35.626Z,13.50
2022-09-26T01:00:09.250Z,14.98
2022-09-26T01:02:36.155Z,14.13
2022-09-26T01:05:05.814Z,14.40
2022-09-26T01:07:33.928Z,13.75
2022-09-26T01:10:02.674Z,13.82
2022-09-26T01:12:29.342Z,13.75
2022-09-26T01:14:58.204Z,13.80
2022-09-26T01:17:26.465Z,14.65
2022-09-26T01:20:02.913Z,14.35
2022-09-26T01:22:44.707Z,13.98
2022-09-26T01:25:23.805Z,15.75
2022-09-26T01:27:51.374Z,14.68
2022-09-26T01:30:22.224Z,14.23
2022-09-26T01:33:09.760Z,14.68
2022-09-26T01:35:51.402Z,14.80
2022-09-26T01:38:48.500Z,14.50
2022-09-26T01:41:32.976Z,14.57
2022-09-26T01:44:07.064Z,14.50
2022-09-26T01:46:42.650Z,16.45
2022-09-26T01:49:16.344Z,16.17
2022-09-26T01:52:08.732Z,14.40
2022-09-26T01:54:46.570Z,15.07
2022-09-26T01:57:24.787Z,16.15
2022-09-26T01:59:57.327Z,15.88
2022-09-26T02:02:27.399Z,15.25
2022-09-26T02:04:59.994Z,15.82
2022-09-26T02:07:35.814Z,16.05
2022-09-26T02:10:13.278Z,17.48
2022-09-26T02:12:45.437Z,15.90
2022-09-26T02:15:16.631Z,17.30
2022-09-26T02:17:48.689Z,18.38
2022-09-26T02:20:24.457Z,18.15
2022-09-26T02:22:51.151Z,19.27
2022-09-26T02:25:17.943Z,17.67
2022-09-26T02:27:44.691Z,18.25
2022-09-26T02:30:12.221Z,18.80
2022-09-26T02:32:40.433Z,20.90
2022-09-26T02:35:27.629Z,20.95
2022-09-26T02:37:54.512Z,18.58
2022-09-26T02:40:30.431Z,17.70
2022-09-26T02:43:11.958Z,15.65
2022-09-26T02:45:47.442Z,16.88
2022-09-26T02:48:36.995Z,15.45
2022-09-26T02:51:16.077Z,14.65
2022-09-26T02:54:00.846Z,14.48
2022-09-26T02:56:38.658Z,15.63
2022-09-26T02:59:13.453Z,13.60
2022-09-26T03:01:55.051Z,14.45
2022-09-26T03:04:38.041Z,13.93
2022-09-26T03:07:10.121Z,13.07
2022-09-26T03:09:37.573Z,13.30
2022-09-26T03:12:07.829Z,12.77
2022-09-26T03:14:36.699Z,13.73
2022-09-26T03:17:04.427Z,13.98
2022-09-26T03:19:45.960Z,13.93
2022-09-26T03:22:13.148Z,13.93
2022-09-26T03:24:42.197Z,12.70
2022-09-26T03:27:11.862Z,13.02
2022-09-26T03:29:39.223Z,13.55
2022-09-26T03:32:06.671Z,13.98
2022-09-26T03:34:33.517Z,13.63
2022-09-26T03:37:00.119Z,12.68
2022-09-26T03:39:26.829Z,13.38
2022-09-26T03:41:53.715Z,12.68
2022-09-26T03:44:21.760Z,14.63
2022-09-26T03:46:48.428Z,12.90
2022-09-26T03:49:15.607Z,13.88
2022-09-26T03:51:44.265Z,13.77
2022-09-26T03:54:14.121Z,15.10
2022-09-26T03:56:41.279Z,14.27
2022-09-26T03:59:09.001Z,15.32
2022-09-26T04:01:35.706Z,16.08
2022-09-26T04:06:50.880Z,17.10
2022-09-26T04:09:18.478Z,17.10
2022-09-26T04:11:46.381Z,16.88
2022-09-26T04:14:13.031Z,18.45
2022-09-26T04:16:39.731Z,18.77
2022-09-26T04:19:06.781Z,18.45
2022-09-26T04:21:35.378Z,19.85
2022-09-26T04:24:02.861Z,19.83
2022-09-26T04:26:29.435Z,18.77
2022-09-26T04:28:57.706Z,19.80
2022-09-26T04:31:27.582Z,17.88
2022-09-26T04:33:55.735Z,19.42
2022-09-26T04:36:23.095Z,19.40
2022-09-26T04:38:49.776Z,18.10
2022-09-26T04:41:19.092Z,17.77
2022-09-26T04:43:46.414Z,18.88
2022-09-26T04:46:18.586Z,18.95
2022-09-26T04:48:49.088Z,19.10
2022-09-26T04:51:17.515Z,18.15
2022-09-26T04:53:44.592Z,19.95
2022-09-26T04:56:13.969Z,18.92
2022-09-26T04:58:43.341Z,20.30
2022-09-26T05:01:12.645Z,19.98
2022-09-26T05:03:40.237Z,18.02
2022-09-26T05:06:09.042Z,19.55
2022-09-26T05:08:39.544Z,18.92
2022-09-26T05:11:07.489Z,19.75
2022-09-26T05:13:35.490Z,19.48
2022-09-26T05:16:03.095Z,19.58
2022-09-26T05:18:35.100Z,19.25
2022-09-26T05:21:03.259Z,18.88
2022-09-26T05:23:45.585Z,18.63
2022-09-26T05:26:22.126Z,19.35
2022-09-26T05:28:51.892Z,18.63
2022-09-26T05:31:19.257Z,18.05
2022-09-26T05:33:46.413Z,19.20
2022-09-26T05:36:13.815Z,18.88
2022-09-26T05:38:40.463Z,18.05
2022-09-26T05:41:07.102Z,17.92
2022-09-26T05:43:35.055Z,17.70
2022-09-26T05:46:06.803Z,15.90
2022-09-26T05:48:35.267Z,18.02
2022-09-26T05:51:06.583Z,17.73
2022-09-26T05:53:33.420Z,18.45
2022-09-26T05:56:03.396Z,19.67
2022-09-26T05:58:34.819Z,16.98
2022-09-26T06:01:10.811Z,18.25
2022-09-26T06:03:38.328Z,17.15
2022-09-26T06:06:07.901Z,16.92
2022-09-26T06:08:35.861Z,16.75
2022-09-26T06:11:05.977Z,17.67
2022-09-26T06:13:34.358Z,18.05
2022-09-26T06:16:06.231Z,17.55
2022-09-26T06:18:34.223Z,16.88
2022-09-26T06:21:03.666Z,15.75
2022-09-26T06:23:31.797Z,17.27
2022-09-26T06:25:59.078Z,16.42
2022-09-26T06:28:27.030Z,17.60
2022-09-26T06:30:54.717Z,16.95
2022-09-26T06:33:21.823Z,15.35
2022-09-26T06:35:58.956Z,16.75
2022-09-26T06:38:25.577Z,15.50
2022-09-26T06:40:53.170Z,16.63
2022-09-26T06:43:19.859Z,15.88
2022-09-26T06:45:48.955Z,15.77
2022-09-26T06:48:21.013Z,15.30
2022-09-26T06:50:52.975Z,14.70
2022-09-26T06:53:19.878Z,14.52
2022-09-26T06:55:46.536Z,14.27
2022-09-26T06:58:13.343Z,14.60
2022-09-26T07:00:40.497Z,14.63
2022-09-26T07:03:08.296Z,13.43
2022-09-26T07:05:35.127Z,15.30
2022-09-26T07:08:02.859Z,13.52
2022-09-26T07:10:30.467Z,13.85
2022-09-26T07:13:06.375Z,13.55
2022-09-26T07:15:34.483Z,14.18
2022-09-26T07:18:02.801Z,13.30
2022-09-26T07:20:32.429Z,13.30
2022-09-26T07:23:03.729Z,12.50
2022-09-26T07:25:31.922Z,13.13
2022-09-26T07:27:58.825Z,12.38
2022-09-26T07:30:25.825Z,12.00
2022-09-26T07:32:52.565Z,12.75
2022-09-26T07:35:19.198Z,12.40
2022-09-26T07:37:46.299Z,13.32
2022-09-26T07:40:13.011Z,11.38
2022-09-26T07:42:39.794Z,12.07
2022-09-26T07:45:24.631Z,12.13
2022-09-26T07:48:08.763Z,11.80
2022-09-26T07:50:36.184Z,11.88
2022-09-26T07:53:03.053Z,12.65
2022-09-26T07:55:29.664Z,12.30
2022-09-26T07:57:58.073Z,11.00
2022-09-26T08:00:26.380Z,10.90
2022-09-26T08:02:53.145Z,10.60
2022-09-26T08:05:20.903Z,11.45
2022-09-26T08:07:48.637Z,10.57
2022-09-26T08:10:24.072Z,9.73
2022-09-26T08:12:50.764Z,9.93
2022-09-26T08:15:17.427Z,9.75
2022-09-26T08:17:44.267Z,10.25
2022-09-26T08:20:12.831Z,10.35
2022-09-26T08:22:39.438Z,10.23
2022-09-26T08:25:07.259Z,11.18
2022-09-26T08:27:34.561Z,10.35
2022-09-26T08:30:04.261Z,9.75
2022-09-26T08:32:32.859Z,10.30
2022-09-26T08:35:00.219Z,9.90
2022-09-26T08:37:28.114Z,9.57
2022-09-26T08:39:54.767Z,8.98
2022-09-26T08:42:40.636Z,9.07
2022-09-26T08:45:47.871Z,8.97
2022-09-26T08:48:39.520Z,9.45
2022-09-26T08:51:29.042Z,9.25
2022-09-26T08:54:00.987Z,8.95
2022-09-26T08:56:35.503Z,9.85
2022-09-26T08:59:06.007Z,9.32
2022-09-26T09:01:38.846Z,9.93
2022-09-26T09:04:15.530Z,9.63
2022-09-26T09:06:43.617Z,8.82
2022-09-26T09:09:16.344Z,9.10
2022-09-26T09:12:05.654Z,9.50
2022-09-26T09:14:44.330Z,8.88
2022-09-26T09:17:13.787Z,8.65
2022-09-26T09:19:48.839Z,8.15
2022-09-26T09:22:42.083Z,7.90
2022-09-26T09:25:14.672Z,7.90
2022-09-26T09:28:01.430Z,7.90
2022-09-26T09:30:43.565Z,7.25
2022-09-26T09:33:13.561Z,7.68
2022-09-26T09:35:46.822Z,7.30
2022-09-26T09:38:18.218Z,7.68
2022-09-26T09:41:04.442Z,7.32
2022-09-26T09:43:38.003Z,7.45
2022-09-26T09:46:14.054Z,8.38
2022-09-26T09:48:41.168Z,8.13
2022-09-26T09:51:29.298Z,7.25
2022-09-26T09:54:20.750Z,7.90
2022-09-26T09:57:22.585Z,7.63
2022-09-26T10:00:18.096Z,8.00
2022-09-26T10:03:20.146Z,8.00
2022-09-26T10:05:50.340Z,8.30
2022-09-26T10:08:27.811Z,9.07
2022-09-26T10:11:12.921Z,8.95
2022-09-26T10:13:43.052Z,8.25
2022-09-26T10:16:15.236Z,7.40
2022-09-26T10:19:03.378Z,7.00
2022-09-26T10:21:34.595Z,7.40
2022-09-26T10:24:04.824Z,7.18
2022-09-26T10:26:37.075Z,6.68
2022-09-26T10:29:21.768Z,6.78
2022-09-26T10:31:56.226Z,6.70
2022-09-26T10:34:28.588Z,7.00
2022-09-26T10:36:56.188Z,6.07
2022-09-26T10:39:41.236Z,5.90
2022-09-26T10:42:28.619Z,6.05
2022-09-26T10:45:03.833Z,5.68
2022-09-26T10:47:31.018Z,6.20
2022-09-26T10:50:06.380Z,6.30
2022-09-26T10:52:40.122Z,6.27
2022-09-26T10:55:07.210Z,6.30
2022-09-26T10:57:40.828Z,5.95
2022-09-26T11:00:07.973Z,6.30
2022-09-26T11:02:36.155Z,6.18
2022-09-26T11:05:20.811Z,5.47
2022-09-26T11:07:49.585Z,5.80
2022-09-26T11:10:24.486Z,5.38
2022-09-26T11:13:19.534Z,5.32
2022-09-26T11:16:01.584Z,6.35
2022-09-26T11:18:44.644Z,5.45
2022-09-26T11:21:41.500Z,5.55
2022-09-26T11:24:19.973Z,5.07
2022-09-26T11:27:05.537Z,4.90
2022-09-26T11:29:55.597Z,5.15
2022-09-26T11:32:31.103Z,3.63
2022-09-26T11:35:02.991Z,4.30
2022-09-26T11:38:05.487Z,3.28
2022-09-26T11:40:41.157Z,3.13
2022-09-26T11:43:45.123Z,2.90
2022-09-26T11:46:27.434Z,3.28
2022-09-26T11:49:13.111Z,2.72
2022-09-26T11:52:07.285Z,3.08
2022-09-26T11:55:04.737Z,2.67
2022-09-26T11:57:34.336Z,3.38
2022-09-26T12:00:33.957Z,3.92
2022-09-26T12:03:40.571Z,4.00
2022-09-26T12:06:18.922Z,4.63
2022-09-26T12:09:11.517Z,5.00
2022-09-26T12:11:59.291Z,5.25
2022-09-26T12:14:45.535Z,4.70
2022-09-26T12:17:19.644Z,4.75
2022-09-26T12:20:02.547Z,4.07
2022-09-26T12:22:43.536Z,4.63
2022-09-26T12:25:26.866Z,4.30
2022-09-26T12:28:10.194Z,3.50
2022-09-26T12:30:43.451Z,3.15
2022-09-26T12:33:32.136Z,2.35
2022-09-26T12:36:24.174Z,2.33
2022-09-26T12:38:56.355Z,2.33
2022-09-26T12:41:39.600Z,2.25
2022-09-26T12:44:22.890Z,2.45
2022-09-26T12:47:04.913Z,2.10
2022-09-26T12:49:58.470Z,2.40
2022-09-26T12:52:42.224Z,2.17
2022-09-26T12:55:39.287Z,2.58
2022-09-26T12:58:05.985Z,2.08
2022-09-26T13:00:44.558Z,2.50
2022-09-26T13:03:42.533Z,2.03
2022-09-26T13:06:48.905Z,2.50
2022-09-26T13:09:55.100Z,2.65
2022-09-26T13:12:40.591Z,2.05
2022-09-26T13:15:22.461Z,2.22
2022-09-26T13:17:57.846Z,1.88
2022-09-26T13:20:38.542Z,3.00
2022-09-26T13:23:22.038Z,2.75
2022-09-26T13:25:54.187Z,3.03
2022-09-26T13:28:26.116Z,3.17
2022-09-26T13:30:59.205Z,3.45
2022-09-26T13:33:26.871Z,3.15
2022-09-26T13:35:56.343Z,3.33
2022-09-26T13:38:51.621Z,2.67
2022-09-26T13:41:53.422Z,2.78
2022-09-26T13:44:32.507Z,2.88
2022-09-26T13:47:27.089Z,2.63
2022-09-26T13:50:23.418Z,2.75
2022-09-26T13:53:07.906Z,2.38
2022-09-26T13:55:35.977Z,2.58
2022-09-26T13:58:21.054Z,2.50
2022-09-26T14:00:53.463Z,2.28
2022-09-26T14:03:20.345Z,2.95
2022-09-26T14:05:50.964Z,2.22
2022-09-26T14:08:46.774Z,2.63
2022-09-26T14:11:28.621Z,2.30
2022-09-26T14:14:22.415Z,1.92
2022-09-26T14:16:52.229Z,2.38
2022-09-26T14:19:36.854Z,2.50
2022-09-26T14:22:23.375Z,2.20
2022-09-26T14:24:51.987Z,2.13
2022-09-26T14:27:18.560Z,2.20
2022-09-26T14:30:07.329Z,2.00
2022-09-26T14:32:39.798Z,2.00
2022-09-26T14:35:31.586Z,2.03
2022-09-26T14:38:07.840Z,2.05
2022-09-26T14:43:04.320Z,1.58
2022-09-26T14:45:32.004Z,2.10
2022-09-26T14:48:08.901Z,2.17
2022-09-26T14:51:06.208Z,2.25
2022-09-26T14:53:49.219Z,1.85
2022-09-26T14:56:16.881Z,2.05
2022-09-26T14:58:45.130Z,1.67
2022-09-26T15:01:18.041Z,2.00
2022-09-26T15:04:03.178Z,1.70
2022-09-26T15:06:35.761Z,1.70
2022-09-26T15:09:10.666Z,1.88
2022-09-26T15:11:57.130Z,1.80
2022-09-26T15:14:41.932Z,1.85
2022-09-26T15:17:29.383Z,1.80
2022-09-26T15:19:59.287Z,1.60
2022-09-26T15:22:29.036Z,1.88
2022-09-26T15:25:08.272Z,2.10
2022-09-26T15:27:35.508Z,1.55
2022-09-26T15:30:28.253Z,1.80
2022-09-26T15:33:02.655Z,1.75
2022-09-26T15:35:40.470Z,1.63
2022-09-26T15:38:12.642Z,1.77
2022-09-26T15:40:47.841Z,1.88
2022-09-26T15:43:22.556Z,7.85
2022-09-26T15:45:59.057Z,11.18
2022-09-26T15:48:31.428Z,13.02
2022-09-26T15:53:53.776Z,6.95
2022-09-26T15:56:42.589Z,4.50
2022-09-26T15:59:11.560Z,3.85
2022-09-26T16:01:42.501Z,3.08
2022-09-26T16:04:27.270Z,2.53
2022-09-26T16:07:26.791Z,2.90
2022-09-26T16:10:09.608Z,3.08
2022-09-26T16:12:39.943Z,2.70
2022-09-26T16:15:22.244Z,2.83
2022-09-26T16:17:52.748Z,2.75
2022-09-26T16:20:19.852Z,2.92
2022-09-26T16:22:51.228Z,2.10
2022-09-26T16:25:18.996Z,1.90
2022-09-26T16:27:49.487Z,2.00
2022-09-26T16:30:36.076Z,5.70
2022-09-26T16:33:02.754Z,10.82
2022-09-26T16:35:31.124Z,10.85
2022-09-26T16:38:07.450Z,7.63
2022-09-26T16:40:36.270Z,7.97
2022-09-26T16:43:17.849Z,6.88
2022-09-26T16:45:49.230Z,6.55
2022-09-26T16:48:37.747Z,6.10
2022-09-26T16:51:13.678Z,2.85
2022-09-26T16:53:40.381Z,11.63
2022-09-26T16:56:10.243Z,12.13
2022-09-26T16:58:36.957Z,7.72
2022-09-26T17:01:18.983Z,5.05
2022-09-26T17:03:46.766Z,8.65
2022-09-26T17:06:13.444Z,3.70
2022-09-26T17:08:40.347Z,3.42
2022-09-26T17:11:14.712Z,3.67
2022-09-26T17:13:42.954Z,2.78
2022-09-26T17:16:10.874Z,2.63
2022-09-26T17:18:37.749Z,3.17
2022-09-26T17:21:05.613Z,2.70
2022-09-26T17:23:41.539Z,3.03
2022-09-26T17:26:18.191Z,2.47
2022-09-26T17:28:45.269Z,3.13
2022-09-26T17:31:19.808Z,4.00
2022-09-26T17:33:51.464Z,3.13
2022-09-26T17:36:28.375Z,4.05
2022-09-26T17:38:59.183Z,4.22
2022-09-26T17:41:27.973Z,3.80
2022-09-26T17:43:59.881Z,5.43
2022-09-26T17:46:27.533Z,4.43
2022-09-26T17:48:56.106Z,4.85
2022-09-26T17:51:24.064Z,3.65
2022-09-26T17:53:52.688Z,4.13
2022-09-26T17:56:19.921Z,3.85
2022-09-26T17:58:51.323Z,3.67
2022-09-26T18:01:26.303Z,2.95
2022-09-26T18:03:59.796Z,3.42
2022-09-26T18:06:31.720Z,2.80
2022-09-26T18:09:05.211Z,3.08
2022-09-26T18:11:34.507Z,2.63
2022-09-26T18:14:04.548Z,3.08
2022-09-26T18:16:31.189Z,2.63
2022-09-26T18:18:57.969Z,2.40
2022-09-26T18:21:26.315Z,2.08
2022-09-26T18:23:59.168Z,2.63
2022-09-26T18:26:31.298Z,2.42
2022-09-26T18:29:02.435Z,1.90
2022-09-26T18:31:31.608Z,2.50
2022-09-26T18:33:58.800Z,2.83
2022-09-26T18:36:26.247Z,2.67
2022-09-26T18:38:52.952Z,2.83
2022-09-26T18:41:26.918Z,3.10
2022-09-26T18:43:55.843Z,3.25
2022-09-26T18:46:31.668Z,3.00
2022-09-26T18:48:59.951Z,3.05
2022-09-26T18:51:27.599Z,3.15
2022-09-26T18:53:54.343Z,2.47
2022-09-26T18:56:36.285Z,2.38
2022-09-26T18:59:02.987Z,3.15
2022-09-26T19:01:35.449Z,2.42
2022-09-26T19:04:05.812Z,2.83
2022-09-26T19:06:37.601Z,2.72
2022-09-26T19:09:07.727Z,3.50
2022-09-26T19:11:35.151Z,3.03
2022-09-26T19:14:10.054Z,3.40
2022-09-26T19:16:36.723Z,3.10
2022-09-26T19:19:03.454Z,4.22
2022-09-26T19:21:40.574Z,2.88
2022-09-26T19:24:38.840Z,2.78
2022-09-26T19:27:18.896Z,2.38
2022-09-26T19:29:48.970Z,2.65
2022-09-26T19:32:31.561Z,2.15
2022-09-26T19:35:01.855Z,2.55
2022-09-26T19:37:28.655Z,2.50
2022-09-26T19:39:57.725Z,2.42
2022-09-26T19:42:26.076Z,2.30
2022-09-26T19:44:53.034Z,3.47
2022-09-26T19:47:23.006Z,2.13
2022-09-26T19:49:51.792Z,3.10
2022-09-26T19:52:20.557Z,2.78
2022-09-26T19:54:47.427Z,3.08
2022-09-26T19:57:16.725Z,2.63
2022-09-26T19:59:43.816Z,3.00
2022-09-26T20:02:14.194Z,3.00
2022-09-26T20:04:40.987Z,3.00
2022-09-26T20:07:12.819Z,3.00
2022-09-26T20:09:40.302Z,2.80
2022-09-26T20:12:07.838Z,2.88
2022-09-26T20:14:34.656Z,2.78
2022-09-26T20:17:14.934Z,2.80
2022-09-26T20:19:45.993Z,2.55
2022-09-26T20:22:16.277Z,2.92
2022-09-26T20:24:44.123Z,3.13
2022-09-26T20:27:17.994Z,3.40
2022-09-26T20:30:05.814Z,3.30
2022-09-26T20:32:32.643Z,2.78
2022-09-26T20:35:00.506Z,3.25
2022-09-26T20:37:32.487Z,2.78
2022-09-26T20:40:00.700Z,3.53
2022-09-26T20:42:33.249Z,3.53
2022-09-26T20:45:02.220Z,3.58
2022-09-26T20:47:29.779Z,4.45
2022-09-26T20:50:01.072Z,2.97
2022-09-26T20:52:29.736Z,3.38
2022-09-26T20:54:57.595Z,3.70
2022-09-26T20:57:24.819Z,3.75
2022-09-26T20:59:51.841Z,4.10
2022-09-26T21:02:37.893Z,4.40
2022-09-26T21:05:16.367Z,4.25
2022-09-26T21:07:43.476Z,4.53
2022-09-26T21:10:27.011Z,4.20
2022-09-26T21:12:55.471Z,4.72
2022-09-26T21:15:24.488Z,4.45
2022-09-26T21:17:52.595Z,4.47
2022-09-26T21:20:29.232Z,4.57
2022-09-26T21:22:57.077Z,4.35
2022-09-26T21:25:25.896Z,4.55
2022-09-26T21:27:56.533Z,4.97
2022-09-26T21:30:23.486Z,5.25
2022-09-26T21:32:53.157Z,4.55
2022-09-26T21:35:20.923Z,5.22
2022-09-26T21:37:51.607Z,5.07
2022-09-26T21:40:22.144Z,4.65
2022-09-26T21:42:52.111Z,5.00
2022-09-26T21:45:23.618Z,4.72
2022-09-26T21:47:55.744Z,5.00
2022-09-26T21:50:25.962Z,4.75
2022-09-26T21:52:59.055Z,4.20
2022-09-26T21:55:33.636Z,4.68
2022-09-26T21:58:07.226Z,4.53
2022-09-26T22:00:37.106Z,5.05
2022-09-26T22:03:07.159Z,5.57
2022-09-26T22:05:33.914Z,7.28
2022-09-26T22:08:01.842Z,7.32
2022-09-26T22:10:29.426Z,8.57
2022-09-26T22:12:56.515Z,7.78
2022-09-26T22:15:23.249Z,7.70
2022-09-26T22:17:49.900Z,6.32
2022-09-26T22:20:16.681Z,7.18
2022-09-26T22:22:43.376Z,6.75
2022-09-26T22:25:10.409Z,7.28
2022-09-26T22:27:37.150Z,6.72
2022-09-26T22:30:04.729Z,6.47
2022-09-26T22:32:31.793Z,6.40
2022-09-26T22:34:58.449Z,6.57
2022-09-26T22:37:25.224Z,6.05
2022-09-26T22:39:51.951Z,6.18
2022-09-26T22:42:18.590Z,6.13
2022-09-26T22:44:45.307Z,7.22
2022-09-26T22:47:12.012Z,7.07
2022-09-26T22:49:38.655Z,6.60
2022-09-26T22:52:05.327Z,6.88
2022-09-26T22:54:32.088Z,6.68
2022-09-26T22:56:58.837Z,8.00
2022-09-26T22:59:25.671Z,7.00
2022-09-26T23:01:52.655Z,7.18
2022-09-26T23:04:19.422Z,6.22
2022-09-26T23:06:46.083Z,6.57
2022-09-26T23:09:12.770Z,6.80
2022-09-26T23:11:40.774Z,7.10
2022-09-26T23:14:07.464Z,6.20
2022-09-26T23:16:34.695Z,6.35
2022-09-26T23:19:01.493Z,6.47
2022-09-26T23:21:28.240Z,6.20
2022-09-26T23:23:58.239Z,6.43
2022-09-26T23:26:27.858Z,6.95
2022-09-26T23:28:56.748Z,6.95
2022-09-26T23:31:24.125Z,7.15
2022-09-26T23:33:51.738Z,7.22
2022-09-26T23:36:19.632Z,6.57
2022-09-26T23:38:46.811Z,6.50
2022-09-26T23:41:14.735Z,7.70
2022-09-26T23:43:42.005Z,7.65
2022-09-26T23:46:09.608Z,7.15
2022-09-26T23:48:37.167Z,7.57
2022-09-26T23:51:04.128Z,6.70
2022-09-26T23:53:31.637Z,5.53
2022-09-26T23:56:08.903Z,5.53
2022-09-26T23:58:37.180Z,5.45
